sensor_id;sensor_type;location;lat;lon;timestamp;P1;durP1;ratioP1;P2;durP2;ratioP2
66739;SDS011;53653;52.188;8.602;2024-01-06T00:02:16;20.20;;;8.85;;
66739;SDS011;53653;52.188;8.602;2024-01-06T00:04:42;22.40;;;10.20;;
66739;SDS011;53653;52.188;8.602;2024-01-06T00:07:08;18.20;;;8.27;;
66739;SDS011;53653;52.188;8.602;2024-01-06T00:09:34;21.23;;;9.85;;
66739;SDS011;53653;52.188;8.602;2024-01-06T00:11:59;19.73;;;8.80;;
66739;SDS011;53653;52.188;8.602;2024-01-06T00:14:27;19.52;;;8.98;;
66739;SDS011;53653;52.188;8.602;2024-01-06T00:16:52;18.17;;;8.57;;
66739;SDS011;53653;52.188;8.602;2024-01-06T00:19:18;20.27;;;8.85;;
66739;SDS011;53653;52.188;8.602;2024-01-06T00:21:43;19.60;;;8.17;;
66739;SDS011;53653;52.188;8.602;2024-01-06T00:24:09;20.67;;;8.67;;
66739;SDS011;53653;52.188;8.602;2024-01-06T00:26:34;20.53;;;7.90;;
66739;SDS011;53653;52.188;8.602;2024-01-06T00:29:00;22.07;;;10.10;;
66739;SDS011;53653;52.188;8.602;2024-01-06T00:31:26;22.98;;;9.82;;
66739;SDS011;53653;52.188;8.602;2024-01-06T00:33:51;20.77;;;9.17;;
66739;SDS011;53653;52.188;8.602;2024-01-06T00:36:17;20.17;;;8.33;;
66739;SDS011;53653;52.188;8.602;2024-01-06T00:38:42;19.83;;;8.95;;
66739;SDS011;53653;52.188;8.602;2024-01-06T00:41:08;18.57;;;8.27;;
66739;SDS011;53653;52.188;8.602;2024-01-06T00:43:34;21.45;;;8.63;;
66739;SDS011;53653;52.188;8.602;2024-01-06T00:45:59;18.97;;;8.50;;
66739;SDS011;53653;52.188;8.602;2024-01-06T00:48:25;18.00;;;8.20;;
66739;SDS011;53653;52.188;8.602;2024-01-06T00:50:51;17.00;;;7.15;;
66739;SDS011;53653;52.188;8.602;2024-01-06T00:53:16;18.07;;;7.40;;
66739;SDS011;53653;52.188;8.602;2024-01-06T00:55:42;18.38;;;7.18;;
66739;SDS011;53653;52.188;8.602;2024-01-06T00:58:07;19.63;;;7.63;;
66739;SDS011;53653;52.188;8.602;2024-01-06T01:00:34;20.83;;;8.35;;
66739;SDS011;53653;52.188;8.602;2024-01-06T01:02:59;18.35;;;7.15;;
66739;SDS011;53653;52.188;8.602;2024-01-06T01:05:25;17.03;;;6.90;;
66739;SDS011;53653;52.188;8.602;2024-01-06T01:07:50;17.43;;;6.43;;
66739;SDS011;53653;52.188;8.602;2024-01-06T01:10:16;16.35;;;6.72;;
66739;SDS011;53653;52.188;8.602;2024-01-06T01:12:42;19.77;;;6.73;;
66739;SDS011;53653;52.188;8.602;2024-01-06T01:15:07;18.92;;;6.95;;
66739;SDS011;53653;52.188;8.602;2024-01-06T01:17:33;19.27;;;7.30;;
66739;SDS011;53653;52.188;8.602;2024-01-06T01:19:59;18.57;;;7.70;;
66739;SDS011;53653;52.188;8.602;2024-01-06T01:22:24;17.33;;;7.07;;
66739;SDS011;53653;52.188;8.602;2024-01-06T01:24:50;20.25;;;8.15;;
66739;SDS011;53653;52.188;8.602;2024-01-06T01:27:16;18.93;;;7.43;;
66739;SDS011;53653;52.188;8.602;2024-01-06T01:29:41;19.42;;;7.88;;
66739;SDS011;53653;52.188;8.602;2024-01-06T01:32:07;24.70;;;8.63;;
66739;SDS011;53653;52.188;8.602;2024-01-06T01:34:32;19.70;;;7.93;;
66739;SDS011;53653;52.188;8.602;2024-01-06T01:36:59;18.92;;;7.13;;
66739;SDS011;53653;52.188;8.602;2024-01-06T01:39:25;18.77;;;7.88;;
66739;SDS011;53653;52.188;8.602;2024-01-06T01:41:50;18.67;;;7.43;;
66739;SDS011;53653;52.188;8.602;2024-01-06T01:44:16;20.10;;;7.87;;
66739;SDS011;53653;52.188;8.602;2024-01-06T01:46:42;19.48;;;7.45;;
66739;SDS011;53653;52.188;8.602;2024-01-06T01:49:07;19.73;;;7.87;;
66739;SDS011;53653;52.188;8.602;2024-01-06T01:51:34;19.38;;;7.18;;
66739;SDS011;53653;52.188;8.602;2024-01-06T01:54:04;21.43;;;8.27;;
66739;SDS011;53653;52.188;8.602;2024-01-06T01:56:31;20.05;;;7.75;;
66739;SDS011;53653;52.188;8.602;2024-01-06T01:59:11;20.50;;;8.00;;
66739;SDS011;53653;52.188;8.602;2024-01-06T02:01:37;21.05;;;7.63;;
66739;SDS011;53653;52.188;8.602;2024-01-06T02:04:07;20.08;;;7.88;;
66739;SDS011;53653;52.188;8.602;2024-01-06T02:06:33;18.10;;;7.63;;
66739;SDS011;53653;52.188;8.602;2024-01-06T02:08:59;17.52;;;7.22;;
66739;SDS011;53653;52.188;8.602;2024-01-06T02:11:25;18.70;;;8.02;;
66739;SDS011;53653;52.188;8.602;2024-01-06T02:13:50;22.23;;;8.33;;
66739;SDS011;53653;52.188;8.602;2024-01-06T02:16:16;16.63;;;7.00;;
66739;SDS011;53653;52.188;8.602;2024-01-06T02:18:41;17.55;;;7.45;;
66739;SDS011;53653;52.188;8.602;2024-01-06T02:21:07;19.40;;;7.90;;
66739;SDS011;53653;52.188;8.602;2024-01-06T02:23:34;19.95;;;7.47;;
66739;SDS011;53653;52.188;8.602;2024-01-06T02:26:01;20.90;;;7.78;;
66739;SDS011;53653;52.188;8.602;2024-01-06T02:28:27;19.85;;;7.75;;
66739;SDS011;53653;52.188;8.602;2024-01-06T02:30:52;18.63;;;7.50;;
66739;SDS011;53653;52.188;8.602;2024-01-06T02:33:18;20.97;;;7.70;;
66739;SDS011;53653;52.188;8.602;2024-01-06T02:35:47;17.10;;;6.70;;
66739;SDS011;53653;52.188;8.602;2024-01-06T02:38:13;17.92;;;7.53;;
66739;SDS011;53653;52.188;8.602;2024-01-06T02:40:38;19.17;;;7.40;;
66739;SDS011;53653;52.188;8.602;2024-01-06T02:43:04;18.08;;;7.10;;
66739;SDS011;53653;52.188;8.602;2024-01-06T02:45:30;18.50;;;6.90;;
66739;SDS011;53653;52.188;8.602;2024-01-06T02:47:55;18.90;;;7.38;;
66739;SDS011;53653;52.188;8.602;2024-01-06T02:50:21;19.87;;;7.67;;
66739;SDS011;53653;52.188;8.602;2024-01-06T02:52:47;18.50;;;7.43;;
66739;SDS011;53653;52.188;8.602;2024-01-06T02:55:13;21.80;;;8.70;;
66739;SDS011;53653;52.188;8.602;2024-01-06T02:57:39;19.70;;;8.02;;
66739;SDS011;53653;52.188;8.602;2024-01-06T03:00:06;19.38;;;7.78;;
66739;SDS011;53653;52.188;8.602;2024-01-06T03:02:32;20.70;;;8.05;;
66739;SDS011;53653;52.188;8.602;2024-01-06T03:04:58;23.80;;;8.23;;
66739;SDS011;53653;52.188;8.602;2024-01-06T03:07:24;24.80;;;8.98;;
66739;SDS011;53653;52.188;8.602;2024-01-06T03:09:49;21.43;;;8.27;;
66739;SDS011;53653;52.188;8.602;2024-01-06T03:12:15;20.10;;;8.07;;
66739;SDS011;53653;52.188;8.602;2024-01-06T03:14:40;19.23;;;7.77;;
66739;SDS011;53653;52.188;8.602;2024-01-06T03:17:06;21.53;;;8.67;;
66739;SDS011;53653;52.188;8.602;2024-01-06T03:19:32;20.88;;;8.18;;
66739;SDS011;53653;52.188;8.602;2024-01-06T03:21:57;20.67;;;8.60;;
66739;SDS011;53653;52.188;8.602;2024-01-06T03:24:23;22.88;;;9.57;;
66739;SDS011;53653;52.188;8.602;2024-01-06T03:26:51;22.40;;;8.67;;
66739;SDS011;53653;52.188;8.602;2024-01-06T03:29:17;22.85;;;9.20;;
66739;SDS011;53653;52.188;8.602;2024-01-06T03:31:43;28.93;;;10.60;;
66739;SDS011;53653;52.188;8.602;2024-01-06T03:34:09;27.73;;;10.55;;
66739;SDS011;53653;52.188;8.602;2024-01-06T03:36:39;27.08;;;10.02;;
66739;SDS011;53653;52.188;8.602;2024-01-06T03:39:05;25.00;;;9.88;;
66739;SDS011;53653;52.188;8.602;2024-01-06T03:41:31;22.87;;;8.60;;
66739;SDS011;53653;52.188;8.602;2024-01-06T03:43:57;22.20;;;8.65;;
66739;SDS011;53653;52.188;8.602;2024-01-06T03:46:23;24.42;;;8.60;;
66739;SDS011;53653;52.188;8.602;2024-01-06T03:48:49;27.80;;;10.33;;
66739;SDS011;53653;52.188;8.602;2024-01-06T03:51:14;25.63;;;10.10;;
66739;SDS011;53653;52.188;8.602;2024-01-06T03:53:40;25.23;;;9.97;;
66739;SDS011;53653;52.188;8.602;2024-01-06T03:56:06;26.50;;;9.87;;
66739;SDS011;53653;52.188;8.602;2024-01-06T03:58:32;23.87;;;9.73;;
66739;SDS011;53653;52.188;8.602;2024-01-06T04:00:58;25.75;;;9.35;;
66739;SDS011;53653;52.188;8.602;2024-01-06T04:03:23;23.50;;;8.93;;
66739;SDS011;53653;52.188;8.602;2024-01-06T04:05:49;26.48;;;10.05;;
66739;SDS011;53653;52.188;8.602;2024-01-06T04:08:14;26.73;;;10.40;;
66739;SDS011;53653;52.188;8.602;2024-01-06T04:10:40;25.13;;;8.88;;
66739;SDS011;53653;52.188;8.602;2024-01-06T04:13:10;26.13;;;8.93;;
66739;SDS011;53653;52.188;8.602;2024-01-06T04:15:36;25.70;;;9.75;;
66739;SDS011;53653;52.188;8.602;2024-01-06T04:18:02;26.52;;;9.43;;
66739;SDS011;53653;52.188;8.602;2024-01-06T04:20:29;25.97;;;9.53;;
66739;SDS011;53653;52.188;8.602;2024-01-06T04:22:54;28.98;;;10.05;;
66739;SDS011;53653;52.188;8.602;2024-01-06T04:25:20;26.98;;;9.63;;
66739;SDS011;53653;52.188;8.602;2024-01-06T04:27:46;28.43;;;10.07;;
66739;SDS011;53653;52.188;8.602;2024-01-06T04:30:13;26.65;;;8.82;;
66739;SDS011;53653;52.188;8.602;2024-01-06T04:32:40;24.10;;;9.35;;
66739;SDS011;53653;52.188;8.602;2024-01-06T04:35:06;24.92;;;8.73;;
66739;SDS011;53653;52.188;8.602;2024-01-06T04:37:31;26.13;;;8.50;;
66739;SDS011;53653;52.188;8.602;2024-01-06T04:39:57;24.73;;;8.45;;
66739;SDS011;53653;52.188;8.602;2024-01-06T04:42:23;24.40;;;8.43;;
66739;SDS011;53653;52.188;8.602;2024-01-06T04:44:49;25.43;;;8.57;;
66739;SDS011;53653;52.188;8.602;2024-01-06T04:47:15;27.85;;;9.10;;
66739;SDS011;53653;52.188;8.602;2024-01-06T04:49:41;25.90;;;9.40;;
66739;SDS011;53653;52.188;8.602;2024-01-06T04:52:06;28.47;;;9.37;;
66739;SDS011;53653;52.188;8.602;2024-01-06T04:54:32;22.13;;;7.73;;
66739;SDS011;53653;52.188;8.602;2024-01-06T04:56:58;23.27;;;8.13;;
66739;SDS011;53653;52.188;8.602;2024-01-06T04:59:24;21.88;;;7.05;;
66739;SDS011;53653;52.188;8.602;2024-01-06T05:01:50;20.67;;;6.50;;
66739;SDS011;53653;52.188;8.602;2024-01-06T05:04:17;19.60;;;7.10;;
66739;SDS011;53653;52.188;8.602;2024-01-06T05:06:43;15.13;;;5.45;;
66739;SDS011;53653;52.188;8.602;2024-01-06T05:09:08;12.53;;;4.47;;
66739;SDS011;53653;52.188;8.602;2024-01-06T05:11:34;11.02;;;4.03;;
66739;SDS011;53653;52.188;8.602;2024-01-06T05:14:00;9.33;;;3.17;;
66739;SDS011;53653;52.188;8.602;2024-01-06T05:16:25;9.55;;;3.17;;
66739;SDS011;53653;52.188;8.602;2024-01-06T05:18:51;9.90;;;2.90;;
66739;SDS011;53653;52.188;8.602;2024-01-06T05:21:16;8.73;;;3.20;;
66739;SDS011;53653;52.188;8.602;2024-01-06T05:23:42;7.93;;;2.90;;
66739;SDS011;53653;52.188;8.602;2024-01-06T05:26:08;7.87;;;2.83;;
66739;SDS011;53653;52.188;8.602;2024-01-06T05:28:35;8.10;;;2.70;;
66739;SDS011;53653;52.188;8.602;2024-01-06T05:31:00;8.60;;;2.90;;
66739;SDS011;53653;52.188;8.602;2024-01-06T05:33:26;7.67;;;2.50;;
66739;SDS011;53653;52.188;8.602;2024-01-06T05:35:51;7.05;;;2.50;;
66739;SDS011;53653;52.188;8.602;2024-01-06T05:38:17;8.23;;;3.03;;
66739;SDS011;53653;52.188;8.602;2024-01-06T05:40:42;7.50;;;2.87;;
66739;SDS011;53653;52.188;8.602;2024-01-06T05:43:08;8.00;;;2.93;;
66739;SDS011;53653;52.188;8.602;2024-01-06T05:45:34;9.17;;;3.70;;
66739;SDS011;53653;52.188;8.602;2024-01-06T05:47:59;9.52;;;3.40;;
66739;SDS011;53653;52.188;8.602;2024-01-06T05:50:25;9.37;;;3.27;;
66739;SDS011;53653;52.188;8.602;2024-01-06T05:52:50;10.95;;;3.30;;
66739;SDS011;53653;52.188;8.602;2024-01-06T05:55:17;10.07;;;3.43;;
66739;SDS011;53653;52.188;8.602;2024-01-06T05:57:42;9.40;;;3.38;;
66739;SDS011;53653;52.188;8.602;2024-01-06T06:00:08;9.83;;;3.77;;
66739;SDS011;53653;52.188;8.602;2024-01-06T06:02:37;12.27;;;3.50;;
66739;SDS011;53653;52.188;8.602;2024-01-06T06:05:04;8.43;;;2.83;;
66739;SDS011;53653;52.188;8.602;2024-01-06T06:07:30;9.10;;;3.27;;
66739;SDS011;53653;52.188;8.602;2024-01-06T06:09:56;9.40;;;3.28;;
66739;SDS011;53653;52.188;8.602;2024-01-06T06:12:22;9.40;;;3.40;;
66739;SDS011;53653;52.188;8.602;2024-01-06T06:14:47;10.98;;;3.33;;
66739;SDS011;53653;52.188;8.602;2024-01-06T06:17:13;10.33;;;3.80;;
66739;SDS011;53653;52.188;8.602;2024-01-06T06:19:38;9.93;;;3.57;;
66739;SDS011;53653;52.188;8.602;2024-01-06T06:22:04;11.13;;;4.22;;
66739;SDS011;53653;52.188;8.602;2024-01-06T06:24:29;9.63;;;3.80;;
66739;SDS011;53653;52.188;8.602;2024-01-06T06:26:55;12.03;;;4.20;;
66739;SDS011;53653;52.188;8.602;2024-01-06T06:29:20;11.75;;;4.47;;
66739;SDS011;53653;52.188;8.602;2024-01-06T06:31:46;12.00;;;4.20;;
66739;SDS011;53653;52.188;8.602;2024-01-06T06:34:12;11.60;;;4.37;;
66739;SDS011;53653;52.188;8.602;2024-01-06T06:36:37;12.63;;;4.47;;
66739;SDS011;53653;52.188;8.602;2024-01-06T06:39:03;11.70;;;4.72;;
66739;SDS011;53653;52.188;8.602;2024-01-06T06:41:29;10.90;;;3.83;;
66739;SDS011;53653;52.188;8.602;2024-01-06T06:43:56;12.52;;;4.72;;
66739;SDS011;53653;52.188;8.602;2024-01-06T06:46:22;12.88;;;4.63;;
66739;SDS011;53653;52.188;8.602;2024-01-06T06:48:48;12.07;;;4.65;;
66739;SDS011;53653;52.188;8.602;2024-01-06T06:51:15;12.83;;;4.40;;
66739;SDS011;53653;52.188;8.602;2024-01-06T06:53:41;12.18;;;4.57;;
66739;SDS011;53653;52.188;8.602;2024-01-06T06:56:07;11.82;;;4.47;;
66739;SDS011;53653;52.188;8.602;2024-01-06T06:58:32;10.50;;;4.10;;
66739;SDS011;53653;52.188;8.602;2024-01-06T07:00:58;11.88;;;4.40;;
66739;SDS011;53653;52.188;8.602;2024-01-06T07:03:24;11.80;;;4.40;;
66739;SDS011;53653;52.188;8.602;2024-01-06T07:05:49;14.50;;;4.50;;
66739;SDS011;53653;52.188;8.602;2024-01-06T07:08:15;12.93;;;4.20;;
66739;SDS011;53653;52.188;8.602;2024-01-06T07:10:41;10.93;;;4.03;;
66739;SDS011;53653;52.188;8.602;2024-01-06T07:13:06;14.43;;;4.80;;
66739;SDS011;53653;52.188;8.602;2024-01-06T07:15:32;13.90;;;4.83;;
66739;SDS011;53653;52.188;8.602;2024-01-06T07:17:58;14.60;;;5.13;;
66739;SDS011;53653;52.188;8.602;2024-01-06T07:20:23;14.07;;;4.80;;
66739;SDS011;53653;52.188;8.602;2024-01-06T07:22:49;13.65;;;4.97;;
66739;SDS011;53653;52.188;8.602;2024-01-06T07:25:14;13.37;;;4.63;;
66739;SDS011;53653;52.188;8.602;2024-01-06T07:27:40;13.75;;;4.78;;
66739;SDS011;53653;52.188;8.602;2024-01-06T07:30:06;13.37;;;4.80;;
66739;SDS011;53653;52.188;8.602;2024-01-06T07:32:33;12.73;;;4.43;;
66739;SDS011;53653;52.188;8.602;2024-01-06T07:34:59;14.20;;;4.72;;
66739;SDS011;53653;52.188;8.602;2024-01-06T07:37:25;15.73;;;4.90;;
66739;SDS011;53653;52.188;8.602;2024-01-06T07:39:51;14.38;;;4.97;;
66739;SDS011;53653;52.188;8.602;2024-01-06T07:42:16;14.93;;;4.23;;
66739;SDS011;53653;52.188;8.602;2024-01-06T07:44:43;13.48;;;4.57;;
66739;SDS011;53653;52.188;8.602;2024-01-06T07:47:09;14.30;;;4.78;;
66739;SDS011;53653;52.188;8.602;2024-01-06T07:49:35;14.45;;;4.70;;
66739;SDS011;53653;52.188;8.602;2024-01-06T07:52:01;11.03;;;4.37;;
66739;SDS011;53653;52.188;8.602;2024-01-06T07:54:27;11.27;;;4.47;;
66739;SDS011;53653;52.188;8.602;2024-01-06T07:56:53;13.90;;;4.78;;
66739;SDS011;53653;52.188;8.602;2024-01-06T07:59:19;14.57;;;5.23;;
66739;SDS011;53653;52.188;8.602;2024-01-06T08:01:44;11.15;;;4.25;;
66739;SDS011;53653;52.188;8.602;2024-01-06T08:04:10;11.40;;;4.20;;
66739;SDS011;53653;52.188;8.602;2024-01-06T08:06:35;11.57;;;4.30;;
66739;SDS011;53653;52.188;8.602;2024-01-06T08:09:01;12.07;;;3.90;;
66739;SDS011;53653;52.188;8.602;2024-01-06T08:11:28;11.88;;;3.60;;
66739;SDS011;53653;52.188;8.602;2024-01-06T08:13:54;10.37;;;4.13;;
66739;SDS011;53653;52.188;8.602;2024-01-06T08:16:19;10.02;;;3.75;;
66739;SDS011;53653;52.188;8.602;2024-01-06T08:18:45;10.60;;;4.28;;
66739;SDS011;53653;52.188;8.602;2024-01-06T08:21:11;14.13;;;4.37;;
66739;SDS011;53653;52.188;8.602;2024-01-06T08:23:37;12.45;;;3.92;;
66739;SDS011;53653;52.188;8.602;2024-01-06T08:26:03;12.33;;;4.03;;
66739;SDS011;53653;52.188;8.602;2024-01-06T08:28:29;12.27;;;4.00;;
66739;SDS011;53653;52.188;8.602;2024-01-06T08:30:55;11.67;;;4.67;;
66739;SDS011;53653;52.188;8.602;2024-01-06T08:33:21;11.93;;;4.13;;
66739;SDS011;53653;52.188;8.602;2024-01-06T08:35:46;10.10;;;3.80;;
66739;SDS011;53653;52.188;8.602;2024-01-06T08:38:12;10.63;;;4.00;;
66739;SDS011;53653;52.188;8.602;2024-01-06T08:40:38;10.18;;;3.92;;
66739;SDS011;53653;52.188;8.602;2024-01-06T08:43:03;11.77;;;3.97;;
66739;SDS011;53653;52.188;8.602;2024-01-06T08:45:29;10.17;;;3.70;;
66739;SDS011;53653;52.188;8.602;2024-01-06T08:47:55;11.95;;;4.20;;
66739;SDS011;53653;52.188;8.602;2024-01-06T08:50:20;11.37;;;3.87;;
66739;SDS011;53653;52.188;8.602;2024-01-06T08:52:46;10.73;;;3.80;;
66739;SDS011;53653;52.188;8.602;2024-01-06T08:55:11;10.23;;;3.80;;
66739;SDS011;53653;52.188;8.602;2024-01-06T08:57:37;11.38;;;4.60;;
66739;SDS011;53653;52.188;8.602;2024-01-06T09:00:06;10.10;;;3.63;;
66739;SDS011;53653;52.188;8.602;2024-01-06T09:02:34;11.63;;;4.00;;
66739;SDS011;53653;52.188;8.602;2024-01-06T09:04:59;12.17;;;4.50;;
66739;SDS011;53653;52.188;8.602;2024-01-06T09:07:25;13.13;;;4.13;;
66739;SDS011;53653;52.188;8.602;2024-01-06T09:09:50;14.25;;;4.25;;
66739;SDS011;53653;52.188;8.602;2024-01-06T09:12:16;13.67;;;4.47;;
66739;SDS011;53653;52.188;8.602;2024-01-06T09:14:42;13.50;;;5.25;;
66739;SDS011;53653;52.188;8.602;2024-01-06T09:17:08;12.07;;;4.17;;
66739;SDS011;53653;52.188;8.602;2024-01-06T09:19:33;10.35;;;3.47;;
66739;SDS011;53653;52.188;8.602;2024-01-06T09:21:59;10.13;;;3.33;;
66739;SDS011;53653;52.188;8.602;2024-01-06T09:24:24;10.48;;;4.07;;
66739;SDS011;53653;52.188;8.602;2024-01-06T09:26:50;9.73;;;3.27;;
66739;SDS011;53653;52.188;8.602;2024-01-06T09:29:16;9.98;;;3.47;;
66739;SDS011;53653;52.188;8.602;2024-01-06T09:31:42;9.13;;;3.20;;
66739;SDS011;53653;52.188;8.602;2024-01-06T09:34:11;9.38;;;3.30;;
66739;SDS011;53653;52.188;8.602;2024-01-06T09:36:37;10.93;;;3.80;;
66739;SDS011;53653;52.188;8.602;2024-01-06T09:39:03;9.80;;;2.90;;
66739;SDS011;53653;52.188;8.602;2024-01-06T09:41:30;8.70;;;3.53;;
66739;SDS011;53653;52.188;8.602;2024-01-06T09:43:56;8.35;;;3.30;;
66739;SDS011;53653;52.188;8.602;2024-01-06T09:46:25;11.60;;;4.13;;
66739;SDS011;53653;52.188;8.602;2024-01-06T09:48:54;9.90;;;3.10;;
66739;SDS011;53653;52.188;8.602;2024-01-06T09:51:22;9.35;;;3.40;;
66739;SDS011;53653;52.188;8.602;2024-01-06T09:53:52;9.20;;;3.78;;
66739;SDS011;53653;52.188;8.602;2024-01-06T09:56:23;9.50;;;3.85;;
66739;SDS011;53653;52.188;8.602;2024-01-06T09:58:50;10.82;;;3.70;;
66739;SDS011;53653;52.188;8.602;2024-01-06T10:01:17;7.50;;;2.57;;
66739;SDS011;53653;52.188;8.602;2024-01-06T10:03:43;5.75;;;2.00;;
66739;SDS011;53653;52.188;8.602;2024-01-06T10:06:11;7.00;;;2.60;;
66739;SDS011;53653;52.188;8.602;2024-01-06T10:08:38;6.93;;;2.67;;
66739;SDS011;53653;52.188;8.602;2024-01-06T10:11:06;8.32;;;2.92;;
66739;SDS011;53653;52.188;8.602;2024-01-06T10:13:35;6.85;;;2.30;;
66739;SDS011;53653;52.188;8.602;2024-01-06T10:16:04;7.80;;;2.63;;
66739;SDS011;53653;52.188;8.602;2024-01-06T10:18:30;8.52;;;2.95;;
66739;SDS011;53653;52.188;8.602;2024-01-06T10:20:56;8.33;;;3.07;;
66739;SDS011;53653;52.188;8.602;2024-01-06T10:23:22;10.02;;;3.55;;
66739;SDS011;53653;52.188;8.602;2024-01-06T10:25:55;10.15;;;3.40;;
66739;SDS011;53653;52.188;8.602;2024-01-06T10:28:21;10.93;;;4.07;;
66739;SDS011;53653;52.188;8.602;2024-01-06T10:30:48;9.30;;;3.80;;
66739;SDS011;53653;52.188;8.602;2024-01-06T10:33:16;10.40;;;3.93;;
66739;SDS011;53653;52.188;8.602;2024-01-06T10:35:42;10.18;;;3.65;;
66739;SDS011;53653;52.188;8.602;2024-01-06T10:38:09;8.30;;;3.50;;
66739;SDS011;53653;52.188;8.602;2024-01-06T10:40:35;9.17;;;3.30;;
66739;SDS011;53653;52.188;8.602;2024-01-06T10:43:00;9.23;;;3.72;;
66739;SDS011;53653;52.188;8.602;2024-01-06T10:45:28;9.90;;;3.17;;
66739;SDS011;53653;52.188;8.602;2024-01-06T10:47:57;10.30;;;3.80;;
66739;SDS011;53653;52.188;8.602;2024-01-06T10:50:24;10.15;;;4.18;;
66739;SDS011;53653;52.188;8.602;2024-01-06T10:52:53;9.90;;;3.70;;
66739;SDS011;53653;52.188;8.602;2024-01-06T10:55:21;14.63;;;4.13;;
66739;SDS011;53653;52.188;8.602;2024-01-06T10:57:50;9.13;;;3.30;;
66739;SDS011;53653;52.188;8.602;2024-01-06T11:00:17;9.00;;;3.40;;
66739;SDS011;53653;52.188;8.602;2024-01-06T11:02:43;11.88;;;3.42;;
66739;SDS011;53653;52.188;8.602;2024-01-06T11:05:09;9.50;;;3.72;;
66739;SDS011;53653;52.188;8.602;2024-01-06T11:07:35;11.30;;;4.60;;
66739;SDS011;53653;52.188;8.602;2024-01-06T11:12:31;11.85;;;4.40;;
66739;SDS011;53653;52.188;8.602;2024-01-06T11:14:57;11.82;;;4.30;;
66739;SDS011;53653;52.188;8.602;2024-01-06T11:20:26;10.25;;;4.13;;
66739;SDS011;53653;52.188;8.602;2024-01-06T11:22:52;9.32;;;3.90;;
66739;SDS011;53653;52.188;8.602;2024-01-06T11:25:19;10.13;;;3.67;;
66739;SDS011;53653;52.188;8.602;2024-01-06T11:27:47;9.15;;;3.75;;
66739;SDS011;53653;52.188;8.602;2024-01-06T11:30:21;11.67;;;4.17;;
66739;SDS011;53653;52.188;8.602;2024-01-06T11:32:51;11.27;;;3.90;;
66739;SDS011;53653;52.188;8.602;2024-01-06T11:35:19;10.57;;;4.20;;
66739;SDS011;53653;52.188;8.602;2024-01-06T11:42:46;9.90;;;4.00;;
66739;SDS011;53653;52.188;8.602;2024-01-06T11:45:13;10.55;;;4.55;;
66739;SDS011;53653;52.188;8.602;2024-01-06T11:47:47;9.93;;;4.20;;
66739;SDS011;53653;52.188;8.602;2024-01-06T11:50:14;9.07;;;3.90;;
66739;SDS011;53653;52.188;8.602;2024-01-06T11:52:40;11.02;;;4.65;;
66739;SDS011;53653;52.188;8.602;2024-01-06T11:55:06;9.60;;;3.87;;
66739;SDS011;53653;52.188;8.602;2024-01-06T11:57:35;9.43;;;3.85;;
66739;SDS011;53653;52.188;8.602;2024-01-06T12:00:00;9.55;;;3.65;;
66739;SDS011;53653;52.188;8.602;2024-01-06T12:02:26;11.27;;;4.37;;
66739;SDS011;53653;52.188;8.602;2024-01-06T12:04:52;8.60;;;3.50;;
66739;SDS011;53653;52.188;8.602;2024-01-06T12:07:19;10.75;;;4.20;;
66739;SDS011;53653;52.188;8.602;2024-01-06T12:09:47;9.32;;;3.63;;
66739;SDS011;53653;52.188;8.602;2024-01-06T12:12:16;8.43;;;3.35;;
66739;SDS011;53653;52.188;8.602;2024-01-06T12:14:42;9.57;;;3.88;;
66739;SDS011;53653;52.188;8.602;2024-01-06T12:17:08;8.73;;;3.40;;
66739;SDS011;53653;52.188;8.602;2024-01-06T12:19:35;8.55;;;3.40;;
66739;SDS011;53653;52.188;8.602;2024-01-06T12:22:01;8.87;;;3.33;;
66739;SDS011;53653;52.188;8.602;2024-01-06T12:24:28;8.18;;;3.20;;
66739;SDS011;53653;52.188;8.602;2024-01-06T12:26:57;7.95;;;2.90;;
66739;SDS011;53653;52.188;8.602;2024-01-06T12:29:26;7.65;;;3.22;;
66739;SDS011;53653;52.188;8.602;2024-01-06T12:31:59;7.72;;;2.63;;
66739;SDS011;53653;52.188;8.602;2024-01-06T12:34:25;6.47;;;2.47;;
66739;SDS011;53653;52.188;8.602;2024-01-06T12:36:52;7.82;;;2.33;;
66739;SDS011;53653;52.188;8.602;2024-01-06T12:39:20;7.43;;;2.60;;
66739;SDS011;53653;52.188;8.602;2024-01-06T12:41:46;8.27;;;2.53;;
66739;SDS011;53653;52.188;8.602;2024-01-06T12:44:11;6.80;;;2.57;;
66739;SDS011;53653;52.188;8.602;2024-01-06T12:46:38;9.82;;;2.13;;
66739;SDS011;53653;52.188;8.602;2024-01-06T12:49:04;5.85;;;1.90;;
66739;SDS011;53653;52.188;8.602;2024-01-06T12:51:29;8.27;;;1.77;;
66739;SDS011;53653;52.188;8.602;2024-01-06T12:53:55;6.35;;;2.22;;
66739;SDS011;53653;52.188;8.602;2024-01-06T12:56:20;6.83;;;2.10;;
66739;SDS011;53653;52.188;8.602;2024-01-06T12:58:46;6.20;;;2.33;;
66739;SDS011;53653;52.188;8.602;2024-01-06T13:01:12;7.10;;;2.20;;
66739;SDS011;53653;52.188;8.602;2024-01-06T13:03:37;7.67;;;2.60;;
66739;SDS011;53653;52.188;8.602;2024-01-06T13:06:04;8.83;;;2.97;;
66739;SDS011;53653;52.188;8.602;2024-01-06T13:08:30;7.75;;;2.90;;
66739;SDS011;53653;52.188;8.602;2024-01-06T13:10:55;8.70;;;3.20;;
66739;SDS011;53653;52.188;8.602;2024-01-06T13:13:21;8.57;;;3.17;;
66739;SDS011;53653;52.188;8.602;2024-01-06T13:15:47;8.47;;;3.50;;
66739;SDS011;53653;52.188;8.602;2024-01-06T13:18:12;9.53;;;3.63;;
66739;SDS011;53653;52.188;8.602;2024-01-06T13:20:39;8.80;;;3.87;;
66739;SDS011;53653;52.188;8.602;2024-01-06T13:23:09;10.33;;;4.30;;
66739;SDS011;53653;52.188;8.602;2024-01-06T13:25:36;11.43;;;4.93;;
66739;SDS011;53653;52.188;8.602;2024-01-06T13:28:06;11.88;;;5.05;;
66739;SDS011;53653;52.188;8.602;2024-01-06T13:30:32;13.38;;;4.93;;
66739;SDS011;53653;52.188;8.602;2024-01-06T13:32:58;12.30;;;5.20;;
66739;SDS011;53653;52.188;8.602;2024-01-06T13:35:24;12.95;;;5.47;;
66739;SDS011;53653;52.188;8.602;2024-01-06T13:37:50;10.43;;;3.83;;
66739;SDS011;53653;52.188;8.602;2024-01-06T13:40:17;10.50;;;3.47;;
66739;SDS011;53653;52.188;8.602;2024-01-06T13:42:49;11.38;;;4.97;;
66739;SDS011;53653;52.188;8.602;2024-01-06T13:45:16;11.97;;;5.23;;
66739;SDS011;53653;52.188;8.602;2024-01-06T13:47:42;6.55;;;2.78;;
66739;SDS011;53653;52.188;8.602;2024-01-06T13:50:14;14.88;;;6.10;;
66739;SDS011;53653;52.188;8.602;2024-01-06T13:52:42;12.98;;;5.60;;
66739;SDS011;53653;52.188;8.602;2024-01-06T13:55:08;12.25;;;5.32;;
66739;SDS011;53653;52.188;8.602;2024-01-06T13:57:34;12.53;;;5.23;;
66739;SDS011;53653;52.188;8.602;2024-01-06T14:00:00;10.57;;;4.50;;
66739;SDS011;53653;52.188;8.602;2024-01-06T14:02:26;11.32;;;4.97;;
66739;SDS011;53653;52.188;8.602;2024-01-06T14:04:52;7.47;;;3.70;;
66739;SDS011;53653;52.188;8.602;2024-01-06T14:07:18;9.33;;;3.77;;
66739;SDS011;53653;52.188;8.602;2024-01-06T14:09:47;11.52;;;4.75;;
66739;SDS011;53653;52.188;8.602;2024-01-06T14:12:13;10.23;;;4.18;;
66739;SDS011;53653;52.188;8.602;2024-01-06T14:14:39;10.90;;;4.33;;
66739;SDS011;53653;52.188;8.602;2024-01-06T14:17:06;7.40;;;2.67;;
66739;SDS011;53653;52.188;8.602;2024-01-06T14:19:32;11.13;;;4.55;;
66739;SDS011;53653;52.188;8.602;2024-01-06T14:21:58;7.18;;;3.15;;
66739;SDS011;53653;52.188;8.602;2024-01-06T14:24:24;10.37;;;4.73;;
66739;SDS011;53653;52.188;8.602;2024-01-06T14:26:50;9.23;;;3.72;;
66739;SDS011;53653;52.188;8.602;2024-01-06T14:29:16;15.67;;;5.00;;
66739;SDS011;53653;52.188;8.602;2024-01-06T14:31:42;10.18;;;4.25;;
66739;SDS011;53653;52.188;8.602;2024-01-06T14:34:08;12.40;;;4.80;;
66739;SDS011;53653;52.188;8.602;2024-01-06T14:36:34;8.10;;;3.03;;
66739;SDS011;53653;52.188;8.602;2024-01-06T14:39:00;10.43;;;4.60;;
66739;SDS011;53653;52.188;8.602;2024-01-06T14:41:26;5.35;;;2.35;;
66739;SDS011;53653;52.188;8.602;2024-01-06T14:43:52;11.53;;;4.67;;